sensor_id;sensor_type;location;lat;lon;timestamp;P1;durP1;ratioP1;P2;durP2;ratioP2
10347;SDS011;5220;43.192;23.284;2024-01-11T00:01:59;2.20;;;1.60;;
10347;SDS011;5220;43.192;23.284;2024-01-11T00:04:27;1.40;;;1.30;;
10347;SDS011;5220;43.192;23.284;2024-01-11T00:06:54;3.53;;;2.10;;
10347;SDS011;5220;43.192;23.284;2024-01-11T00:09:20;4.03;;;2.37;;
10347;SDS011;5220;43.192;23.284;2024-01-11T00:11:47;4.53;;;2.37;;
10347;SDS011;5220;43.192;23.284;2024-01-11T00:14:14;11.97;;;6.90;;
10347;SDS011;5220;43.192;23.284;2024-01-11T00:16:40;12.90;;;6.00;;
10347;SDS011;5220;43.192;23.284;2024-01-11T00:19:07;6.17;;;4.47;;
10347;SDS011;5220;43.192;23.284;2024-01-11T00:21:35;5.00;;;3.10;;
10347;SDS011;5220;43.192;23.284;2024-01-11T00:24:02;3.63;;;2.50;;
10347;SDS011;5220;43.192;23.284;2024-01-11T00:26:29;6.97;;;4.30;;
10347;SDS011;5220;43.192;23.284;2024-01-11T00:28:56;4.27;;;3.07;;
10347;SDS011;5220;43.192;23.284;2024-01-11T00:31:22;3.73;;;2.17;;
10347;SDS011;5220;43.192;23.284;2024-01-11T00:33:49;2.90;;;2.60;;
10347;SDS011;5220;43.192;23.284;2024-01-11T00:36:17;3.80;;;3.03;;
10347;SDS011;5220;43.192;23.284;2024-01-11T00:38:46;3.33;;;2.63;;
10347;SDS011;5220;43.192;23.284;2024-01-11T00:41:13;2.93;;;2.00;;
10347;SDS011;5220;43.192;23.284;2024-01-11T00:43:39;2.47;;;1.90;;
10347;SDS011;5220;43.192;23.284;2024-01-11T00:46:06;6.20;;;3.87;;
10347;SDS011;5220;43.192;23.284;2024-01-11T00:48:33;6.77;;;4.47;;
10347;SDS011;5220;43.192;23.284;2024-01-11T00:50:59;13.33;;;7.10;;
10347;SDS011;5220;43.192;23.284;2024-01-11T00:53:26;8.17;;;5.13;;
10347;SDS011;5220;43.192;23.284;2024-01-11T00:55:56;3.13;;;2.73;;
10347;SDS011;5220;43.192;23.284;2024-01-11T00:58:23;2.70;;;1.77;;
10347;SDS011;5220;43.192;23.284;2024-01-11T01:00:50;3.10;;;2.53;;
10347;SDS011;5220;43.192;23.284;2024-01-11T01:03:17;4.87;;;2.77;;
10347;SDS011;5220;43.192;23.284;2024-01-11T01:05:44;4.10;;;2.77;;
10347;SDS011;5220;43.192;23.284;2024-01-11T01:08:11;5.30;;;3.27;;
10347;SDS011;5220;43.192;23.284;2024-01-11T01:10:38;5.67;;;3.83;;
10347;SDS011;5220;43.192;23.284;2024-01-11T01:13:06;2.83;;;1.90;;
10347;SDS011;5220;43.192;23.284;2024-01-11T01:15:33;1.97;;;1.77;;
10347;SDS011;5220;43.192;23.284;2024-01-11T01:17:59;3.70;;;1.77;;
10347;SDS011;5220;43.192;23.284;2024-01-11T01:20:26;1.60;;;1.50;;
10347;SDS011;5220;43.192;23.284;2024-01-11T01:22:53;2.73;;;1.53;;
10347;SDS011;5220;43.192;23.284;2024-01-11T01:25:19;1.70;;;1.40;;
10347;SDS011;5220;43.192;23.284;2024-01-11T01:27:46;9.93;;;4.13;;
10347;SDS011;5220;43.192;23.284;2024-01-11T01:30:14;8.43;;;4.70;;
10347;SDS011;5220;43.192;23.284;2024-01-11T01:32:41;10.27;;;6.77;;
10347;SDS011;5220;43.192;23.284;2024-01-11T01:35:08;17.37;;;10.33;;
10347;SDS011;5220;43.192;23.284;2024-01-11T01:37:35;8.43;;;5.60;;
10347;SDS011;5220;43.192;23.284;2024-01-11T01:40:01;9.80;;;5.57;;
10347;SDS011;5220;43.192;23.284;2024-01-11T01:42:28;8.03;;;5.10;;
10347;SDS011;5220;43.192;23.284;2024-01-11T01:44:55;3.63;;;2.60;;
10347;SDS011;5220;43.192;23.284;2024-01-11T01:47:23;9.47;;;6.07;;
10347;SDS011;5220;43.192;23.284;2024-01-11T01:49:50;3.43;;;2.10;;
10347;SDS011;5220;43.192;23.284;2024-01-11T01:52:18;6.70;;;3.93;;
10347;SDS011;5220;43.192;23.284;2024-01-11T01:54:46;3.90;;;2.57;;
10347;SDS011;5220;43.192;23.284;2024-01-11T01:57:14;3.57;;;2.13;;
10347;SDS011;5220;43.192;23.284;2024-01-11T01:59:42;3.13;;;1.50;;
10347;SDS011;5220;43.192;23.284;2024-01-11T02:02:11;2.03;;;1.60;;
10347;SDS011;5220;43.192;23.284;2024-01-11T02:04:39;6.93;;;3.57;;
10347;SDS011;5220;43.192;23.284;2024-01-11T02:07:06;5.20;;;2.80;;
10347;SDS011;5220;43.192;23.284;2024-01-11T02:09:33;2.40;;;1.87;;
10347;SDS011;5220;43.192;23.284;2024-01-11T02:12:00;2.47;;;1.73;;
10347;SDS011;5220;43.192;23.284;2024-01-11T02:14:29;2.70;;;1.30;;
10347;SDS011;5220;43.192;23.284;2024-01-11T02:16:56;2.10;;;1.53;;
10347;SDS011;5220;43.192;23.284;2024-01-11T02:19:23;3.93;;;1.47;;
10347;SDS011;5220;43.192;23.284;2024-01-11T02:21:52;1.60;;;1.30;;
10347;SDS011;5220;43.192;23.284;2024-01-11T02:24:21;2.70;;;2.23;;
10347;SDS011;5220;43.192;23.284;2024-01-11T02:26:58;4.80;;;3.33;;
10347;SDS011;5220;43.192;23.284;2024-01-11T02:29:26;5.90;;;3.50;;
10347;SDS011;5220;43.192;23.284;2024-01-11T02:31:53;5.93;;;3.37;;
10347;SDS011;5220;43.192;23.284;2024-01-11T02:34:20;7.10;;;4.67;;
10347;SDS011;5220;43.192;23.284;2024-01-11T02:36:47;7.13;;;4.77;;
10347;SDS011;5220;43.192;23.284;2024-01-11T02:39:15;9.40;;;6.07;;
10347;SDS011;5220;43.192;23.284;2024-01-11T02:41:44;10.77;;;6.40;;
10347;SDS011;5220;43.192;23.284;2024-01-11T02:44:11;11.97;;;7.80;;
10347;SDS011;5220;43.192;23.284;2024-01-11T02:46:38;7.33;;;4.50;;
10347;SDS011;5220;43.192;23.284;2024-01-11T02:49:04;5.77;;;3.70;;
10347;SDS011;5220;43.192;23.284;2024-01-11T02:51:31;12.43;;;6.90;;
10347;SDS011;5220;43.192;23.284;2024-01-11T02:53:58;4.83;;;3.00;;
10347;SDS011;5220;43.192;23.284;2024-01-11T02:56:25;7.77;;;5.40;;
10347;SDS011;5220;43.192;23.284;2024-01-11T02:58:53;12.77;;;7.37;;
10347;SDS011;5220;43.192;23.284;2024-01-11T03:01:20;3.53;;;2.00;;
10347;SDS011;5220;43.192;23.284;2024-01-11T03:03:46;2.63;;;2.37;;
10347;SDS011;5220;43.192;23.284;2024-01-11T03:06:13;2.03;;;1.83;;
10347;SDS011;5220;43.192;23.284;2024-01-11T03:08:42;2.13;;;1.93;;
10347;SDS011;5220;43.192;23.284;2024-01-11T03:11:09;3.30;;;2.00;;
10347;SDS011;5220;43.192;23.284;2024-01-11T03:13:35;2.17;;;1.97;;
10347;SDS011;5220;43.192;23.284;2024-01-11T03:16:04;3.70;;;2.50;;
10347;SDS011;5220;43.192;23.284;2024-01-11T03:18:31;1.93;;;1.47;;
10347;SDS011;5220;43.192;23.284;2024-01-11T03:20:57;2.40;;;2.03;;
10347;SDS011;5220;43.192;23.284;2024-01-11T03:23:23;2.43;;;2.10;;
10347;SDS011;5220;43.192;23.284;2024-01-11T03:25:50;5.23;;;3.13;;
10347;SDS011;5220;43.192;23.284;2024-01-11T03:28:17;2.53;;;1.90;;
10347;SDS011;5220;43.192;23.284;2024-01-11T03:30:43;2.30;;;1.40;;
10347;SDS011;5220;43.192;23.284;2024-01-11T03:33:12;2.30;;;1.90;;
10347;SDS011;5220;43.192;23.284;2024-01-11T03:35:38;3.30;;;2.60;;
10347;SDS011;5220;43.192;23.284;2024-01-11T03:38:05;2.90;;;2.30;;
10347;SDS011;5220;43.192;23.284;2024-01-11T03:40:32;3.73;;;1.57;;
10347;SDS011;5220;43.192;23.284;2024-01-11T03:42:58;1.30;;;1.20;;
10347;SDS011;5220;43.192;23.284;2024-01-11T03:45:26;1.73;;;1.17;;
10347;SDS011;5220;43.192;23.284;2024-01-11T03:47:52;1.10;;;1.00;;
10347;SDS011;5220;43.192;23.284;2024-01-11T03:50:20;1.43;;;1.30;;
10347;SDS011;5220;43.192;23.284;2024-01-11T03:52:47;1.27;;;1.17;;
10347;SDS011;5220;43.192;23.284;2024-01-11T03:55:14;1.23;;;1.10;;
10347;SDS011;5220;43.192;23.284;2024-01-11T03:57:40;4.47;;;2.73;;
10347;SDS011;5220;43.192;23.284;2024-01-11T04:00:07;7.80;;;4.10;;
10347;SDS011;5220;43.192;23.284;2024-01-11T04:02:34;16.03;;;7.47;;
10347;SDS011;5220;43.192;23.284;2024-01-11T04:05:01;17.40;;;7.70;;
10347;SDS011;5220;43.192;23.284;2024-01-11T04:07:29;9.90;;;5.30;;
10347;SDS011;5220;43.192;23.284;2024-01-11T04:09:56;12.40;;;7.50;;
10347;SDS011;5220;43.192;23.284;2024-01-11T04:12:23;8.97;;;5.80;;
10347;SDS011;5220;43.192;23.284;2024-01-11T04:14:49;8.50;;;5.47;;
10347;SDS011;5220;43.192;23.284;2024-01-11T04:17:16;9.40;;;5.63;;
10347;SDS011;5220;43.192;23.284;2024-01-11T04:19:43;9.50;;;5.73;;
10347;SDS011;5220;43.192;23.284;2024-01-11T04:22:09;7.40;;;4.87;;
10347;SDS011;5220;43.192;23.284;2024-01-11T04:24:37;5.27;;;3.67;;
10347;SDS011;5220;43.192;23.284;2024-01-11T04:27:04;6.70;;;4.43;;
10347;SDS011;5220;43.192;23.284;2024-01-11T04:29:31;4.30;;;3.30;;
10347;SDS011;5220;43.192;23.284;2024-01-11T04:31:57;3.00;;;2.67;;
10347;SDS011;5220;43.192;23.284;2024-01-11T04:34:24;6.83;;;4.97;;
10347;SDS011;5220;43.192;23.284;2024-01-11T04:36:51;9.60;;;6.20;;
10347;SDS011;5220;43.192;23.284;2024-01-11T04:39:17;5.13;;;4.00;;
10347;SDS011;5220;43.192;23.284;2024-01-11T04:41:45;4.57;;;3.57;;
10347;SDS011;5220;43.192;23.284;2024-01-11T04:44:13;3.77;;;2.40;;
10347;SDS011;5220;43.192;23.284;2024-01-11T04:46:40;1.60;;;1.47;;
10347;SDS011;5220;43.192;23.284;2024-01-11T04:49:07;6.53;;;4.93;;
10347;SDS011;5220;43.192;23.284;2024-01-11T04:51:33;6.03;;;4.33;;
10347;SDS011;5220;43.192;23.284;2024-01-11T04:54:00;3.70;;;3.27;;
10347;SDS011;5220;43.192;23.284;2024-01-11T04:56:27;4.50;;;3.30;;
10347;SDS011;5220;43.192;23.284;2024-01-11T04:58:56;6.67;;;2.60;;
10347;SDS011;5220;43.192;23.284;2024-01-11T05:01:23;4.97;;;3.33;;
10347;SDS011;5220;43.192;23.284;2024-01-11T05:03:50;4.93;;;3.43;;
10347;SDS011;5220;43.192;23.284;2024-01-11T05:06:17;6.63;;;4.60;;
10347;SDS011;5220;43.192;23.284;2024-01-11T05:08:44;11.20;;;6.70;;
10347;SDS011;5220;43.192;23.284;2024-01-11T05:11:15;7.03;;;4.37;;
10347;SDS011;5220;43.192;23.284;2024-01-11T05:13:43;6.20;;;3.97;;
10347;SDS011;5220;43.192;23.284;2024-01-11T05:16:18;10.80;;;5.90;;
10347;SDS011;5220;43.192;23.284;2024-01-11T05:18:46;19.10;;;9.97;;
10347;SDS011;5220;43.192;23.284;2024-01-11T05:21:12;20.23;;;10.27;;
10347;SDS011;5220;43.192;23.284;2024-01-11T05:23:40;32.63;;;18.13;;
10347;SDS011;5220;43.192;23.284;2024-01-11T05:26:06;27.67;;;13.90;;
10347;SDS011;5220;43.192;23.284;2024-01-11T05:28:33;14.53;;;8.60;;
10347;SDS011;5220;43.192;23.284;2024-01-11T05:31:00;9.53;;;6.90;;
10347;SDS011;5220;43.192;23.284;2024-01-11T05:33:28;12.57;;;7.43;;
10347;SDS011;5220;43.192;23.284;2024-01-11T05:35:56;11.90;;;6.40;;
10347;SDS011;5220;43.192;23.284;2024-01-11T05:38:23;7.63;;;4.90;;
10347;SDS011;5220;43.192;23.284;2024-01-11T05:40:49;7.93;;;5.63;;
10347;SDS011;5220;43.192;23.284;2024-01-11T05:43:16;10.50;;;6.00;;
10347;SDS011;5220;43.192;23.284;2024-01-11T05:45:43;9.13;;;5.47;;
10347;SDS011;5220;43.192;23.284;2024-01-11T05:48:10;10.17;;;5.20;;
10347;SDS011;5220;43.192;23.284;2024-01-11T05:50:38;8.17;;;4.53;;
10347;SDS011;5220;43.192;23.284;2024-01-11T05:53:05;7.50;;;4.80;;
10347;SDS011;5220;43.192;23.284;2024-01-11T05:55:31;7.20;;;5.30;;
10347;SDS011;5220;43.192;23.284;2024-01-11T05:57:58;10.67;;;6.40;;
10347;SDS011;5220;43.192;23.284;2024-01-11T06:00:24;9.57;;;5.50;;
10347;SDS011;5220;43.192;23.284;2024-01-11T06:02:51;5.63;;;3.90;;
10347;SDS011;5220;43.192;23.284;2024-01-11T06:05:18;3.57;;;2.80;;
10347;SDS011;5220;43.192;23.284;2024-01-11T06:07:46;4.17;;;2.17;;
10347;SDS011;5220;43.192;23.284;2024-01-11T06:10:13;8.63;;;5.70;;
10347;SDS011;5220;43.192;23.284;2024-01-11T06:12:40;2.17;;;1.97;;
10347;SDS011;5220;43.192;23.284;2024-01-11T06:15:07;1.80;;;1.70;;
10347;SDS011;5220;43.192;23.284;2024-01-11T06:17:34;2.03;;;1.70;;
10347;SDS011;5220;43.192;23.284;2024-01-11T06:20:01;2.93;;;2.07;;
10347;SDS011;5220;43.192;23.284;2024-01-11T06:22:28;5.77;;;3.73;;
10347;SDS011;5220;43.192;23.284;2024-01-11T06:24:56;9.70;;;6.00;;
10347;SDS011;5220;43.192;23.284;2024-01-11T06:27:24;7.00;;;4.90;;
10347;SDS011;5220;43.192;23.284;2024-01-11T06:29:51;10.47;;;8.40;;
10347;SDS011;5220;43.192;23.284;2024-01-11T06:32:18;15.27;;;10.67;;
10347;SDS011;5220;43.192;23.284;2024-01-11T06:34:45;17.67;;;10.73;;
10347;SDS011;5220;43.192;23.284;2024-01-11T06:37:12;25.57;;;16.67;;
10347;SDS011;5220;43.192;23.284;2024-01-11T06:39:39;35.00;;;19.73;;
10347;SDS011;5220;43.192;23.284;2024-01-11T06:42:07;36.30;;;19.93;;
10347;SDS011;5220;43.192;23.284;2024-01-11T06:44:34;45.73;;;22.53;;
10347;SDS011;5220;43.192;23.284;2024-01-11T06:47:00;68.77;;;29.73;;
10347;SDS011;5220;43.192;23.284;2024-01-11T06:49:29;42.47;;;22.73;;
10347;SDS011;5220;43.192;23.284;2024-01-11T06:51:55;38.47;;;23.73;;
10347;SDS011;5220;43.192;23.284;2024-01-11T06:54:22;7.27;;;5.40;;
10347;SDS011;5220;43.192;23.284;2024-01-11T06:56:49;8.97;;;6.00;;
10347;SDS011;5220;43.192;23.284;2024-01-11T06:59:17;9.00;;;5.27;;
10347;SDS011;5220;43.192;23.284;2024-01-11T07:01:43;23.33;;;12.80;;
10347;SDS011;5220;43.192;23.284;2024-01-11T07:04:10;23.70;;;14.13;;
10347;SDS011;5220;43.192;23.284;2024-01-11T07:06:37;23.87;;;13.50;;
10347;SDS011;5220;43.192;23.284;2024-01-11T07:09:04;25.03;;;13.40;;
10347;SDS011;5220;43.192;23.284;2024-01-11T07:11:31;10.17;;;7.20;;
10347;SDS011;5220;43.192;23.284;2024-01-11T07:13:58;22.73;;;12.87;;
10347;SDS011;5220;43.192;23.284;2024-01-11T07:16:26;26.87;;;14.80;;
10347;SDS011;5220;43.192;23.284;2024-01-11T07:18:53;20.53;;;12.93;;
10347;SDS011;5220;43.192;23.284;2024-01-11T07:21:20;18.53;;;12.00;;
10347;SDS011;5220;43.192;23.284;2024-01-11T07:23:54;11.00;;;6.50;;
10347;SDS011;5220;43.192;23.284;2024-01-11T07:26:21;7.80;;;4.73;;
10347;SDS011;5220;43.192;23.284;2024-01-11T07:28:48;6.17;;;4.07;;
10347;SDS011;5220;43.192;23.284;2024-01-11T07:31:15;3.10;;;2.40;;
10347;SDS011;5220;43.192;23.284;2024-01-11T07:33:43;3.93;;;2.30;;
10347;SDS011;5220;43.192;23.284;2024-01-11T07:36:10;3.07;;;2.43;;
10347;SDS011;5220;43.192;23.284;2024-01-11T07:38:37;4.93;;;3.10;;
10347;SDS011;5220;43.192;23.284;2024-01-11T07:41:04;4.40;;;3.17;;
10347;SDS011;5220;43.192;23.284;2024-01-11T07:43:31;4.00;;;3.10;;
10347;SDS011;5220;43.192;23.284;2024-01-11T07:46:00;4.50;;;3.27;;
10347;SDS011;5220;43.192;23.284;2024-01-11T07:48:27;4.30;;;2.43;;
10347;SDS011;5220;43.192;23.284;2024-01-11T07:50:55;1.50;;;1.40;;
10347;SDS011;5220;43.192;23.284;2024-01-11T07:53:22;1.30;;;1.20;;
10347;SDS011;5220;43.192;23.284;2024-01-11T07:55:49;0.70;;;0.70;;
10347;SDS011;5220;43.192;23.284;2024-01-11T07:58:16;1.10;;;1.00;;
10347;SDS011;5220;43.192;23.284;2024-01-11T08:00:42;0.50;;;0.50;;
10347;SDS011;5220;43.192;23.284;2024-01-11T08:03:10;0.60;;;0.60;;
10347;SDS011;5220;43.192;23.284;2024-01-11T08:05:36;0.40;;;0.40;;
10347;SDS011;5220;43.192;23.284;2024-01-11T08:08:05;0.50;;;0.50;;
10347;SDS011;5220;43.192;23.284;2024-01-11T08:10:32;2.77;;;0.50;;
10347;SDS011;5220;43.192;23.284;2024-01-11T08:12:58;0.37;;;0.37;;
10347;SDS011;5220;43.192;23.284;2024-01-11T08:15:26;1.43;;;0.90;;
10347;SDS011;5220;43.192;23.284;2024-01-11T08:17:52;2.30;;;1.50;;
10347;SDS011;5220;43.192;23.284;2024-01-11T08:20:19;13.53;;;8.10;;
10347;SDS011;5220;43.192;23.284;2024-01-11T08:22:46;20.77;;;13.80;;
10347;SDS011;5220;43.192;23.284;2024-01-11T08:25:14;20.73;;;16.30;;
10347;SDS011;5220;43.192;23.284;2024-01-11T08:27:41;23.00;;;16.83;;
10347;SDS011;5220;43.192;23.284;2024-01-11T08:30:08;23.87;;;17.43;;
10347;SDS011;5220;43.192;23.284;2024-01-11T08:32:34;21.17;;;15.10;;
10347;SDS011;5220;43.192;23.284;2024-01-11T08:35:04;23.23;;;15.37;;
10347;SDS011;5220;43.192;23.284;2024-01-11T08:37:31;16.37;;;12.97;;
10347;SDS011;5220;43.192;23.284;2024-01-11T08:39:58;18.27;;;14.40;;
10347;SDS011;5220;43.192;23.284;2024-01-11T08:42:26;18.57;;;13.50;;
10347;SDS011;5220;43.192;23.284;2024-01-11T08:44:53;18.80;;;13.27;;
10347;SDS011;5220;43.192;23.284;2024-01-11T08:47:20;12.30;;;9.83;;
10347;SDS011;5220;43.192;23.284;2024-01-11T08:49:46;15.13;;;9.90;;
10347;SDS011;5220;43.192;23.284;2024-01-11T08:52:13;11.70;;;8.77;;
10347;SDS011;5220;43.192;23.284;2024-01-11T08:54:40;15.47;;;9.67;;
10347;SDS011;5220;43.192;23.284;2024-01-11T08:57:06;15.40;;;9.77;;
10347;SDS011;5220;43.192;23.284;2024-01-11T08:59:34;13.40;;;9.60;;
10347;SDS011;5220;43.192;23.284;2024-01-11T09:02:01;21.90;;;15.37;;
10347;SDS011;5220;43.192;23.284;2024-01-11T09:04:28;20.30;;;14.47;;
10347;SDS011;5220;43.192;23.284;2024-01-11T09:06:54;22.60;;;16.33;;
10347;SDS011;5220;43.192;23.284;2024-01-11T09:09:22;23.73;;;16.30;;
10347;SDS011;5220;43.192;23.284;2024-01-11T09:11:48;22.77;;;16.93;;
10347;SDS011;5220;43.192;23.284;2024-01-11T09:14:15;26.07;;;18.33;;
10347;SDS011;5220;43.192;23.284;2024-01-11T09:16:43;25.80;;;18.77;;
10347;SDS011;5220;43.192;23.284;2024-01-11T09:19:11;32.77;;;21.33;;
10347;SDS011;5220;43.192;23.284;2024-01-11T09:21:38;30.07;;;20.67;;
10347;SDS011;5220;43.192;23.284;2024-01-11T09:24:04;28.10;;;20.30;;
10347;SDS011;5220;43.192;23.284;2024-01-11T09:26:31;27.67;;;19.50;;
10347;SDS011;5220;43.192;23.284;2024-01-11T09:28:58;24.93;;;16.83;;
10347;SDS011;5220;43.192;23.284;2024-01-11T09:31:24;22.60;;;16.83;;
10347;SDS011;5220;43.192;23.284;2024-01-11T09:33:52;22.47;;;16.47;;
10347;SDS011;5220;43.192;23.284;2024-01-11T09:36:22;27.60;;;19.00;;
10347;SDS011;5220;43.192;23.284;2024-01-11T09:38:48;34.13;;;22.63;;
10347;SDS011;5220;43.192;23.284;2024-01-11T09:41:15;34.30;;;22.33;;
10347;SDS011;5220;43.192;23.284;2024-01-11T09:43:42;34.67;;;21.33;;
10347;SDS011;5220;43.192;23.284;2024-01-11T09:46:09;28.00;;;18.67;;
10347;SDS011;5220;43.192;23.284;2024-01-11T09:48:38;30.27;;;18.40;;
10347;SDS011;5220;43.192;23.284;2024-01-11T09:51:09;32.30;;;23.07;;
10347;SDS011;5220;43.192;23.284;2024-01-11T09:53:37;34.17;;;23.83;;
10347;SDS011;5220;43.192;23.284;2024-01-11T09:56:05;34.27;;;23.10;;
10347;SDS011;5220;43.192;23.284;2024-01-11T09:58:35;24.97;;;16.90;;
10347;SDS011;5220;43.192;23.284;2024-01-11T10:01:03;19.80;;;14.10;;
10347;SDS011;5220;43.192;23.284;2024-01-11T10:03:35;20.47;;;13.57;;
10347;SDS011;5220;43.192;23.284;2024-01-11T10:06:02;18.27;;;12.23;;
10347;SDS011;5220;43.192;23.284;2024-01-11T10:08:30;12.33;;;9.33;;
10347;SDS011;5220;43.192;23.284;2024-01-11T10:10:58;7.67;;;5.40;;
10347;SDS011;5220;43.192;23.284;2024-01-11T10:13:26;9.07;;;6.03;;
10347;SDS011;5220;43.192;23.284;2024-01-11T10:16:03;9.10;;;7.03;;
10347;SDS011;5220;43.192;23.284;2024-01-11T10:18:31;9.47;;;6.47;;
10347;SDS011;5220;43.192;23.284;2024-01-11T10:20:58;9.83;;;7.03;;
10347;SDS011;5220;43.192;23.284;2024-01-11T10:23:25;11.77;;;8.00;;
10347;SDS011;5220;43.192;23.284;2024-01-11T10:25:55;18.57;;;9.97;;
10347;SDS011;5220;43.192;23.284;2024-01-11T10:28:23;14.73;;;9.17;;
10347;SDS011;5220;43.192;23.284;2024-01-11T10:30:51;10.40;;;7.37;;
10347;SDS011;5220;43.192;23.284;2024-01-11T10:33:19;10.25;;;7.13;;
10347;SDS011;5220;43.192;23.284;2024-01-11T10:35:47;8.90;;;6.63;;
10347;SDS011;5220;43.192;23.284;2024-01-11T10:38:15;8.10;;;5.73;;
10347;SDS011;5220;43.192;23.284;2024-01-11T10:40:43;10.57;;;7.10;;
10347;SDS011;5220;43.192;23.284;2024-01-11T10:43:12;10.10;;;7.05;;
10347;SDS011;5220;43.192;23.284;2024-01-11T10:45:41;10.85;;;7.70;;
10347;SDS011;5220;43.192;23.284;2024-01-11T10:48:13;12.05;;;9.68;;
10347;SDS011;5220;43.192;23.284;2024-01-11T10:50:41;12.43;;;9.63;;
10347;SDS011;5220;43.192;23.284;2024-01-11T10:53:12;11.90;;;9.00;;
10347;SDS011;5220;43.192;23.284;2024-01-11T10:55:45;12.68;;;8.75;;
10347;SDS011;5220;43.192;23.284;2024-01-11T10:58:14;14.18;;;10.13;;
10347;SDS011;5220;43.192;23.284;2024-01-11T11:00:42;13.40;;;9.63;;
10347;SDS011;5220;43.192;23.284;2024-01-11T11:03:10;11.40;;;7.47;;
10347;SDS011;5220;43.192;23.284;2024-01-11T11:05:38;9.38;;;6.88;;
10347;SDS011;5220;43.192;23.284;2024-01-11T11:08:06;11.13;;;7.70;;
10347;SDS011;5220;43.192;23.284;2024-01-11T11:10:34;9.57;;;7.35;;
10347;SDS011;5220;43.192;23.284;2024-01-11T11:13:03;6.53;;;4.60;;
10347;SDS011;5220;43.192;23.284;2024-01-11T11:15:32;6.97;;;5.60;;
10347;SDS011;5220;43.192;23.284;2024-01-11T11:18:02;12.15;;;9.25;;
10347;SDS011;5220;43.192;23.284;2024-01-11T11:20:31;20.67;;;14.13;;
10347;SDS011;5220;43.192;23.284;2024-01-11T11:23:04;20.30;;;14.43;;
10347;SDS011;5220;43.192;23.284;2024-01-11T11:25:31;18.00;;;13.35;;
10347;SDS011;5220;43.192;23.284;2024-01-11T11:27:58;14.50;;;10.60;;
10347;SDS011;5220;43.192;23.284;2024-01-11T11:30:26;12.63;;;9.25;;
10347;SDS011;5220;43.192;23.284;2024-01-11T11:32:54;14.53;;;9.83;;
10347;SDS011;5220;43.192;23.284;2024-01-11T11:35:22;13.00;;;7.97;;
10347;SDS011;5220;43.192;23.284;2024-01-11T11:37:53;26.65;;;16.98;;
10347;SDS011;5220;43.192;23.284;2024-01-11T11:40:21;12.23;;;7.95;;
10347;SDS011;5220;43.192;23.284;2024-01-11T11:42:48;13.65;;;8.68;;
10347;SDS011;5220;43.192;23.284;2024-01-11T11:45:23;8.95;;;6.20;;
10347;SDS011;5220;43.192;23.284;2024-01-11T11:47:51;10.95;;;7.60;;
10347;SDS011;5220;43.192;23.284;2024-01-11T11:50:22;7.10;;;4.80;;
10347;SDS011;5220;43.192;23.284;2024-01-11T11:52:53;6.20;;;3.80;;
10347;SDS011;5220;43.192;23.284;2024-01-11T11:55:20;5.93;;;4.15;;
10347;SDS011;5220;43.192;23.284;2024-01-11T11:57:48;7.35;;;5.68;;
10347;SDS011;5220;43.192;23.284;2024-01-11T12:00:16;7.80;;;5.17;;
10347;SDS011;5220;43.192;23.284;2024-01-11T12:02:43;11.75;;;6.68;;
10347;SDS011;5220;43.192;23.284;2024-01-11T12:05:10;13.00;;;7.78;;
10347;SDS011;5220;43.192;23.284;2024-01-11T12:07:38;9.35;;;6.20;;
10347;SDS011;5220;43.192;23.284;2024-01-11T12:10:05;15.23;;;8.73;;
10347;SDS011;5220;43.192;23.284;2024-01-11T12:12:33;17.53;;;10.57;;
10347;SDS011;5220;43.192;23.284;2024-01-11T12:15:02;10.10;;;7.30;;
10347;SDS011;5220;43.192;23.284;2024-01-11T12:17:29;14.27;;;8.67;;
10347;SDS011;5220;43.192;23.284;2024-01-11T12:19:55;9.33;;;6.60;;
10347;SDS011;5220;43.192;23.284;2024-01-11T12:22:22;11.15;;;7.43;;
10347;SDS011;5220;43.192;23.284;2024-01-11T12:24:51;12.32;;;8.02;;
10347;SDS011;5220;43.192;23.284;2024-01-11T12:27:18;10.57;;;7.73;;
10347;SDS011;5220;43.192;23.284;2024-01-11T12:29:45;10.00;;;7.20;;
10347;SDS011;5220;43.192;23.284;2024-01-11T12:32:12;13.27;;;8.73;;
10347;SDS011;5220;43.192;23.284;2024-01-11T12:34:40;10.50;;;7.73;;
10347;SDS011;5220;43.192;23.284;2024-01-11T12:37:08;10.67;;;7.80;;
10347;SDS011;5220;43.192;23.284;2024-01-11T12:39:37;10.07;;;7.30;;
10347;SDS011;5220;43.192;23.284;2024-01-11T12:42:05;7.43;;;5.97;;
10347;SDS011;5220;43.192;23.284;2024-01-11T12:44:34;9.27;;;5.90;;
10347;SDS011;5220;43.192;23.284;2024-01-11T12:47:03;6.97;;;5.87;;
10347;SDS011;5220;43.192;23.284;2024-01-11T12:49:31;7.33;;;5.40;;
10347;SDS011;5220;43.192;23.284;2024-01-11T12:51:58;10.18;;;7.15;;
10347;SDS011;5220;43.192;23.284;2024-01-11T12:54:25;8.45;;;6.30;;
10347;SDS011;5220;43.192;23.284;2024-01-11T12:56:51;8.37;;;5.97;;
10347;SDS011;5220;43.192;23.284;2024-01-11T12:59:19;8.47;;;6.10;;
10347;SDS011;5220;43.192;23.284;2024-01-11T13:01:51;9.00;;;6.33;;
10347;SDS011;5220;43.192;23.284;2024-01-11T13:04:18;14.50;;;11.17;;
10347;SDS011;5220;43.192;23.284;2024-01-11T13:06:45;15.00;;;9.80;;
10347;SDS011;5220;43.192;23.284;2024-01-11T13:09:12;10.47;;;8.07;;
10347;SDS011;5220;43.192;23.284;2024-01-11T13:11:39;14.80;;;11.17;;
10347;SDS011;5220;43.192;23.284;2024-01-11T13:14:06;18.23;;;13.10;;
10347;SDS011;5220;43.192;23.284;2024-01-11T13:16:40;16.60;;;12.30;;
10347;SDS011;5220;43.192;23.284;2024-01-11T13:19:07;17.63;;;12.33;;
10347;SDS011;5220;43.192;23.284;2024-01-11T13:21:36;15.57;;;11.43;;
10347;SDS011;5220;43.192;23.284;2024-01-11T13:24:03;15.48;;;10.52;;
10347;SDS011;5220;43.192;23.284;2024-01-11T13:26:30;13.57;;;9.82;;
10347;SDS011;5220;43.192;23.284;2024-01-11T13:28:57;15.07;;;10.23;;
10347;SDS011;5220;43.192;23.284;2024-01-11T13:31:23;14.88;;;9.93;;
10347;SDS011;5220;43.192;23.284;2024-01-11T13:33:51;12.43;;;9.10;;
10347;SDS011;5220;43.192;23.284;2024-01-11T13:36:20;13.25;;;8.93;;
10347;SDS011;5220;43.192;23.284;2024-01-11T13:38:47;12.40;;;8.93;;
10347;SDS011;5220;43.192;23.284;2024-01-11T13:41:14;12.95;;;9.43;;
10347;SDS011;5220;43.192;23.284;2024-01-11T13:43:41;14.93;;;10.67;;
10347;SDS011;5220;43.192;23.284;2024-01-11T13:46:07;21.90;;;15.00;;
10347;SDS011;5220;43.192;23.284;2024-01-11T13:48:34;24.07;;;16.90;;
10347;SDS011;5220;43.192;23.284;2024-01-11T13:51:03;25.70;;;20.30;;
10347;SDS011;5220;43.192;23.284;2024-01-11T13:53:30;29.37;;;21.30;;
10347;SDS011;5220;43.192;23.284;2024-01-11T13:55:57;25.50;;;16.67;;
10347;SDS011;5220;43.192;23.284;2024-01-11T13:58:24;28.63;;;17.13;;
10347;SDS011;5220;43.192;23.284;2024-01-11T14:00:51;25.37;;;17.43;;
10347;SDS011;5220;43.192;23.284;2024-01-11T14:03:18;23.47;;;16.87;;
10347;SDS011;5220;43.192;23.284;2024-01-11T14:05:44;18.43;;;13.80;;
10347;SDS011;5220;43.192;23.284;2024-01-11T14:08:13;23.77;;;15.40;;
10347;SDS011;5220;43.192;23.284;2024-01-11T14:10:40;19.40;;;13.30;;
10347;SDS011;5220;43.192;23.284;2024-01-11T14:13:07;17.90;;;12.13;;
10347;SDS011;5220;43.192;23.284;2024-01-11T14:15:34;17.57;;;11.20;;
10347;SDS011;5220;43.192;23.284;2024-01-11T14:18:02;12.77;;;10.50;;
10347;SDS011;5220;43.192;23.284;2024-01-11T14:20:29;15.23;;;12.30;;
10347;SDS011;5220;43.192;23.284;2024-01-11T14:22:56;17.10;;;12.53;;
10347;SDS011;5220;43.192;23.284;2024-01-11T14:25:25;13.17;;;10.17;;
10347;SDS011;5220;43.192;23.284;2024-01-11T14:27:51;15.03;;;10.30;;
10347;SDS011;5220;43.192;23.284;2024-01-11T14:30:18;10.50;;;7.20;;
10347;SDS011;5220;43.192;23.284;2024-01-11T14:32:47;8.43;;;6.47;;
10347;SDS011;5220;43.192;23.284;2024-01-11T14:35:14;20.47;;;14.83;;
10347;SDS011;5220;43.192;23.284;2024-01-11T14:37:42;19.97;;;15.67;;
10347;SDS011;5220;43.192;23.284;2024-01-11T14:40:09;22.50;;;16.23;;